createdAt,value
2024-02-27T00:00:23.242Z,17.50
2024-02-27T00:03:10.920Z,17.70
2024-02-27T00:05:38.200Z,16.30
2024-02-27T00:08:05.865Z,20.40
2024-02-27T00:10:33.728Z,17.60
2024-02-27T00:13:02.694Z,12.50
2024-02-27T00:15:30.122Z,16.60
2024-02-27T00:17:59.816Z,15.10
2024-02-27T00:20:28.052Z,14.50
2024-02-27T00:22:55.796Z,15.20
2024-02-27T00:25:24.123Z,14.90
2024-02-27T00:27:51.580Z,14.30
2024-02-27T00:30:19.034Z,14.10
2024-02-27T00:32:46.586Z,12.20
2024-02-27T00:35:13.877Z,13.10
2024-02-27T00:37:41.178Z,15.60
2024-02-27T00:40:09.696Z,16.50
2024-02-27T00:42:37.155Z,12.90
2024-02-27T00:45:05.605Z,20.30
2024-02-27T00:47:33.443Z,16.10
2024-02-27T00:50:00.750Z,13.90
2024-02-27T00:52:28.147Z,13.30
2024-02-27T00:54:55.549Z,13.80
2024-02-27T00:57:22.935Z,14.90
2024-02-27T00:59:50.331Z,9.70
2024-02-27T01:02:18.006Z,14.00
2024-02-27T01:04:45.324Z,14.90
2024-02-27T01:07:12.773Z,15.40
2024-02-27T01:09:40.309Z,14.10
2024-02-27T01:12:08.317Z,11.50
2024-02-27T01:14:35.986Z,12.80
2024-02-27T01:17:03.586Z,15.60
2024-02-27T01:19:30.950Z,15.50
2024-02-27T01:22:02.617Z,12.00
2024-02-27T01:24:30.167Z,12.90
2024-02-27T01:26:57.545Z,13.80
2024-02-27T01:29:25.005Z,13.60
2024-02-27T01:31:54.454Z,16.10
2024-02-27T01:34:22.213Z,13.70
2024-02-27T01:36:49.551Z,15.70
2024-02-27T01:39:17.004Z,15.80
2024-02-27T01:41:48.763Z,13.20
2024-02-27T01:44:16.165Z,15.20
2024-02-27T01:46:43.968Z,13.60
2024-02-27T01:49:15.319Z,14.40
2024-02-27T01:51:44.762Z,15.20
2024-02-27T01:54:14.653Z,14.50
2024-02-27T01:56:42.146Z,15.20
2024-02-27T01:59:12.340Z,14.60
2024-02-27T02:01:41.023Z,14.90
2024-02-27T02:04:09.871Z,15.80
2024-02-27T02:06:37.766Z,18.70
2024-02-27T02:09:05.388Z,17.40
2024-02-27T02:11:32.770Z,16.70
2024-02-27T02:14:00.204Z,15.20
2024-02-27T02:16:27.670Z,15.40
2024-02-27T02:18:54.988Z,17.10
2024-02-27T02:21:24.873Z,18.10
2024-02-27T02:23:52.886Z,15.20
2024-02-27T02:26:20.569Z,17.20
2024-02-27T02:28:50.175Z,14.90
2024-02-27T02:31:17.854Z,17.60
2024-02-27T02:33:45.415Z,16.50
2024-02-27T02:36:13.228Z,19.80
2024-02-27T02:38:40.768Z,19.70
2024-02-27T02:41:08.015Z,20.00
2024-02-27T02:43:35.598Z,18.00
2024-02-27T02:46:02.985Z,18.50
2024-02-27T02:48:30.314Z,17.50
2024-02-27T02:50:57.948Z,16.80
2024-02-27T02:53:25.311Z,19.80
2024-02-27T02:55:52.535Z,19.00
2024-02-27T02:58:20.148Z,18.40
2024-02-27T03:00:49.630Z,18.70
2024-02-27T03:03:16.946Z,19.30
2024-02-27T03:05:44.755Z,17.50
2024-02-27T03:08:12.306Z,18.50
2024-02-27T03:10:39.645Z,18.40
2024-02-27T03:13:09.752Z,18.90
2024-02-27T03:15:37.405Z,19.80
2024-02-27T03:18:05.299Z,18.20
2024-02-27T03:20:32.808Z,21.30
2024-02-27T03:23:00.096Z,22.90
2024-02-27T03:25:27.341Z,25.40
2024-02-27T03:27:54.845Z,23.70
2024-02-27T03:30:22.382Z,27.60
2024-02-27T03:32:49.643Z,33.80
2024-02-27T03:35:17.474Z,28.40
2024-02-27T03:37:45.213Z,27.30
2024-02-27T03:40:12.571Z,26.20
2024-02-27T03:42:40.857Z,25.80
2024-02-27T03:45:11.729Z,33.50
2024-02-27T03:47:39.090Z,22.60
2024-02-27T03:50:07.074Z,26.20
2024-02-27T03:52:34.371Z,21.50
2024-02-27T03:55:01.648Z,23.00
2024-02-27T03:57:29.254Z,23.30
2024-02-27T03:59:56.961Z,20.50
2024-02-27T04:02:24.250Z,21.70
2024-02-27T04:04:51.979Z,20.60
2024-02-27T04:07:19.256Z,21.60
2024-02-27T04:09:46.586Z,20.80
2024-02-27T04:12:14.097Z,20.10
2024-02-27T04:14:41.656Z,20.80
2024-02-27T04:17:08.889Z,21.80
2024-02-27T04:19:36.594Z,22.30
2024-02-27T04:22:04.050Z,22.60
2024-02-27T04:24:31.692Z,22.10
2024-02-27T04:26:59.196Z,21.10
2024-02-27T04:29:26.613Z,20.20
2024-02-27T04:31:54.241Z,20.80
2024-02-27T04:34:24.061Z,19.20
2024-02-27T04:36:51.438Z,20.70
2024-02-27T04:39:18.745Z,19.10
2024-02-27T04:41:46.459Z,22.50
2024-02-27T04:44:13.846Z,22.00
2024-02-27T04:46:41.463Z,18.00
2024-02-27T04:49:08.841Z,22.50
2024-02-27T04:51:36.988Z,22.80
2024-02-27T04:54:05.171Z,21.00
2024-02-27T04:56:34.887Z,27.10
2024-02-27T04:59:02.177Z,21.60
2024-02-27T05:01:29.493Z,22.40
2024-02-27T05:03:57.437Z,21.80
2024-02-27T05:06:24.909Z,21.90
2024-02-27T05:08:52.328Z,21.80
2024-02-27T05:11:21.964Z,20.40
2024-02-27T05:13:49.910Z,19.70
2024-02-27T05:16:17.175Z,20.80
2024-02-27T05:18:44.647Z,21.60
2024-02-27T05:21:12.166Z,22.30
2024-02-27T05:23:39.541Z,20.40
2024-02-27T05:26:09.168Z,21.90
2024-02-27T05:28:37.728Z,23.60
2024-02-27T05:31:27.905Z,21.90
2024-02-27T05:33:56.412Z,30.20
2024-02-27T05:36:24.981Z,24.60
2024-02-27T05:38:52.923Z,21.10
2024-02-27T05:41:20.293Z,22.10
2024-02-27T05:43:48.665Z,20.50
2024-02-27T05:46:16.244Z,18.50
2024-02-27T05:48:44.049Z,20.90
2024-02-27T05:51:11.509Z,20.10
2024-02-27T05:53:39.443Z,21.40
2024-02-27T05:56:07.253Z,20.40
2024-02-27T05:58:34.509Z,23.80
2024-02-27T06:01:02.023Z,17.40
2024-02-27T06:03:29.899Z,22.10
2024-02-27T06:05:57.555Z,22.10
2024-02-27T06:08:26.696Z,18.90
2024-02-27T06:10:56.358Z,23.50
2024-02-27T06:13:23.593Z,23.00
2024-02-27T06:15:51.216Z,22.10
2024-02-27T06:18:18.799Z,26.60
2024-02-27T06:21:04.898Z,20.10
2024-02-27T06:23:36.660Z,19.80
2024-02-27T06:26:04.226Z,18.30
2024-02-27T06:28:33.731Z,19.40
2024-02-27T06:31:01.279Z,21.20
2024-02-27T06:33:28.780Z,23.30
2024-02-27T06:35:56.181Z,22.10
2024-02-27T06:38:23.616Z,22.50
2024-02-27T06:40:50.937Z,21.30
2024-02-27T06:46:11.983Z,25.10
2024-02-27T06:58:12.765Z,27.00
2024-02-27T07:18:32.983Z,28.40
2024-02-27T07:38:54.622Z,30.50
2024-02-27T10:44:42.816Z,24.90
2024-02-27T10:47:28.194Z,21.60
2024-02-27T11:00:05.369Z,27.10
2024-02-27T11:03:00.709Z,20.60
2024-02-27T11:06:14.612Z,21.00
2024-02-27T11:09:12.997Z,18.70
2024-02-27T11:19:42.126Z,23.20
2024-02-27T11:23:00.350Z,24.30
2024-02-27T11:26:02.599Z,29.10
2024-02-27T11:43:45.766Z,22.10
2024-02-27T11:49:52.331Z,23.40
2024-02-27T12:04:53.736Z,19.70
2024-02-27T12:14:33.751Z,18.00
2024-02-27T12:17:01.516Z,17.70
2024-02-27T12:24:50.572Z,22.20
2024-02-27T12:30:10.999Z,14.90
2024-02-27T12:40:29.538Z,16.80
2024-02-27T12:54:21.900Z,15.10
2024-02-27T12:58:18.020Z,12.00
2024-02-27T13:01:43.245Z,14.00
2024-02-27T13:16:00.863Z,15.70
2024-02-27T13:24:53.800Z,16.20
2024-02-27T13:27:22.320Z,13.10
2024-02-27T13:29:55.396Z,12.90
2024-02-27T13:32:42.749Z,14.80
2024-02-27T13:35:34.246Z,15.30
2024-02-27T13:42:07.200Z,44.50
2024-02-27T13:44:34.936Z,16.80
2024-02-27T13:47:02.941Z,10.70
2024-02-27T13:49:30.097Z,11.70
2024-02-27T13:51:57.423Z,13.10
2024-02-27T13:54:24.515Z,19.40
2024-02-27T13:56:51.764Z,19.50
2024-02-27T13:59:19.209Z,13.90
2024-02-27T14:01:46.872Z,21.80
2024-02-27T14:04:14.349Z,15.70
2024-02-27T14:06:42.067Z,13.10
2024-02-27T14:09:09.469Z,13.80
2024-02-27T14:11:39.838Z,19.30
2024-02-27T14:14:13.949Z,26.50
2024-02-27T14:16:44.843Z,37.50
2024-02-27T14:19:12.725Z,30.30
2024-02-27T14:21:39.961Z,24.30
2024-02-27T14:24:09.082Z,18.10
2024-02-27T14:26:36.402Z,10.70
2024-02-27T14:29:06.033Z,19.20
2024-02-27T14:31:33.632Z,18.10
2024-02-27T14:34:01.589Z,18.60
2024-02-27T14:36:28.866Z,20.60
2024-02-27T14:38:55.993Z,11.30
2024-02-27T14:41:23.449Z,19.00
2024-02-27T14:43:50.293Z,19.20
2024-02-27T14:46:17.454Z,18.80
2024-02-27T14:48:44.657Z,24.20
2024-02-27T14:51:11.742Z,23.70
2024-02-27T14:53:38.753Z,17.70
2024-02-27T14:56:06.141Z,17.40
2024-02-27T14:58:33.032Z,15.40
2024-02-27T15:01:06.901Z,18.40
2024-02-27T15:03:36.509Z,17.20
2024-02-27T15:06:08.374Z,24.10
2024-02-27T15:08:35.237Z,28.40
2024-02-27T15:11:03.046Z,21.90
2024-02-27T15:13:30.625Z,18.10
2024-02-27T15:16:04.869Z,19.50
2024-02-27T15:18:32.130Z,14.70
2024-02-27T15:20:59.334Z,44.40
2024-02-27T15:23:26.402Z,19.80
2024-02-27T15:25:54.230Z,44.50
2024-02-27T15:28:21.622Z,60.80
2024-02-27T15:30:51.670Z,41.20
2024-02-27T15:33:19.290Z,22.80
2024-02-27T15:35:46.356Z,22.10
2024-02-27T15:38:14.076Z,31.70
2024-02-27T15:40:41.112Z,31.70
2024-02-27T15:43:13.633Z,29.50
2024-02-27T15:45:42.072Z,27.90
2024-02-27T15:48:11.607Z,24.50
2024-02-27T15:50:38.809Z,25.60
2024-02-27T15:53:07.938Z,41.20
2024-02-27T15:55:38.868Z,41.40
2024-02-27T15:58:06.653Z,27.90
2024-02-27T16:00:34.478Z,22.30
2024-02-27T16:03:11.885Z,27.60
2024-02-27T16:05:40.323Z,23.10
2024-02-27T16:08:09.709Z,22.10
2024-02-27T16:10:37.069Z,23.40
2024-02-27T16:13:08.886Z,16.10
2024-02-27T16:18:47.927Z,31.30
2024-02-27T16:21:19.241Z,17.50
2024-02-27T16:24:41.469Z,23.40
2024-02-27T16:27:09.763Z,21.10
2024-02-27T16:29:43.142Z,24.40
2024-02-27T16:32:10.484Z,20.20
2024-02-27T16:34:37.584Z,29.00
2024-02-27T16:37:07.727Z,27.30
2024-02-27T16:39:35.009Z,22.40
2024-02-27T16:42:01.851Z,29.70
2024-02-27T16:44:29.228Z,14.50
2024-02-27T16:46:56.454Z,14.30
2024-02-27T16:49:23.427Z,16.70
2024-02-27T16:51:50.597Z,29.50
2024-02-27T16:54:17.718Z,21.40
2024-02-27T16:56:45.070Z,19.60
2024-02-27T16:59:14.984Z,13.00
2024-02-27T17:01:42.712Z,21.30
2024-02-27T17:04:09.570Z,36.40
2024-02-27T17:06:40.862Z,17.40
2024-02-27T17:09:09.910Z,21.50
2024-02-27T17:11:36.788Z,19.20
2024-02-27T17:14:06.968Z,36.40
2024-02-27T17:16:34.081Z,32.30
2024-02-27T17:19:01.383Z,35.90
2024-02-27T17:21:28.862Z,33.90
2024-02-27T17:23:56.099Z,33.90
2024-02-27T17:26:26.162Z,32.10
2024-02-27T17:28:53.240Z,26.50
2024-02-27T17:31:20.387Z,32.10
2024-02-27T17:33:47.530Z,30.20
2024-02-27T17:36:17.460Z,31.30
2024-02-27T17:38:44.875Z,30.40
2024-02-27T17:41:12.189Z,27.00
2024-02-27T17:43:39.100Z,27.70
2024-02-27T17:46:07.543Z,34.40
2024-02-27T17:48:37.966Z,32.30
2024-02-27T17:51:05.423Z,28.60
2024-02-27T17:53:32.329Z,27.00
2024-02-27T17:56:01.835Z,25.60
2024-02-27T17:58:28.996Z,28.10
2024-02-27T18:00:56.435Z,27.60
2024-02-27T18:03:25.338Z,35.80
2024-02-27T18:05:53.619Z,31.90
2024-02-27T18:08:20.765Z,46.50
2024-02-27T18:10:47.695Z,30.40
2024-02-27T18:13:14.824Z,36.80
2024-02-27T18:15:45.140Z,39.90
2024-02-27T18:18:12.297Z,22.20
2024-02-27T18:20:39.629Z,27.70
2024-02-27T18:23:10.361Z,25.90
2024-02-27T18:25:39.408Z,20.20
2024-02-27T18:54:29.512Z,15.50
2024-02-27T18:56:56.321Z,16.40
2024-02-27T18:59:22.983Z,17.40
2024-02-27T19:01:49.863Z,19.90
2024-02-27T19:04:56.276Z,18.40
2024-02-27T19:07:23.360Z,22.30
2024-02-27T19:09:51.203Z,19.30
2024-02-27T19:12:18.426Z,19.10
2024-02-27T19:14:45.534Z,17.50
2024-02-27T19:17:12.417Z,18.40
2024-02-27T19:19:39.220Z,19.00
2024-02-27T19:22:06.098Z,20.80
2024-02-27T19:24:33.216Z,18.80
2024-02-27T19:27:16.409Z,18.10
2024-02-27T19:29:43.212Z,19.00
2024-02-27T19:32:11.541Z,17.90
2024-02-27T19:34:38.694Z,16.00
2024-02-27T19:40:41.264Z,16.60
2024-02-27T19:43:08.586Z,15.50
2024-02-27T19:45:36.290Z,15.20
2024-02-27T19:55:52.641Z,17.10
2024-02-27T19:58:22.223Z,19.70
2024-02-27T20:00:52.009Z,19.90
2024-02-27T20:03:42.890Z,17.40
2024-02-27T20:06:13.541Z,18.60
2024-02-27T20:08:40.740Z,17.70
2024-02-27T20:11:08.646Z,18.70
2024-02-27T20:13:35.874Z,16.10
2024-02-27T20:16:05.741Z,16.70
2024-02-27T20:18:37.101Z,18.00
2024-02-27T20:21:05.586Z,22.00
2024-02-27T20:23:33.497Z,14.90
2024-02-27T20:26:06.138Z,25.10
2024-02-27T20:28:33.273Z,16.20
2024-02-27T20:31:00.361Z,18.10
2024-02-27T20:33:29.860Z,17.90
2024-02-27T20:35:56.799Z,18.30
2024-02-27T20:38:23.690Z,16.70
2024-02-27T20:40:50.841Z,17.30
2024-02-27T20:43:18.044Z,15.70
2024-02-27T20:45:44.926Z,14.80
2024-02-27T20:48:12.598Z,17.90
2024-02-27T20:50:39.615Z,15.60
2024-02-27T20:53:07.835Z,16.00
2024-02-27T20:55:34.796Z,17.80
2024-02-27T20:58:01.902Z,17.20
2024-02-27T21:00:28.872Z,18.30
2024-02-27T21:02:55.959Z,17.60
2024-02-27T21:05:22.965Z,17.60
2024-02-27T21:07:49.857Z,18.00
2024-02-27T21:10:17.294Z,14.70
2024-02-27T21:12:44.281Z,15.30
2024-02-27T21:15:11.344Z,15.70
2024-02-27T21:17:38.513Z,21.50
2024-02-27T21:20:07.297Z,17.40
2024-02-27T21:22:34.601Z,17.10
2024-02-27T21:25:01.798Z,18.10
2024-02-27T21:27:28.812Z,17.00
2024-02-27T21:29:55.623Z,21.90
2024-02-27T21:32:23.662Z,20.20
2024-02-27T21:34:50.655Z,19.20
2024-02-27T21:37:17.498Z,20.20
2024-02-27T21:39:44.458Z,18.70
2024-02-27T21:42:11.386Z,19.90
2024-02-27T21:44:38.195Z,20.40
2024-02-27T21:47:05.387Z,21.10
2024-02-27T21:49:32.395Z,20.90
2024-02-27T21:52:03.360Z,23.00
2024-02-27T21:54:31.447Z,24.60
2024-02-27T21:56:58.380Z,25.30
2024-02-27T21:59:25.279Z,21.10
2024-02-27T22:01:54.889Z,24.70
2024-02-27T22:04:21.862Z,22.10
2024-02-27T22:06:48.557Z,23.70
2024-02-27T22:09:15.513Z,24.30
2024-02-27T22:11:42.261Z,21.80
2024-02-27T22:14:11.779Z,25.30
2024-02-27T22:16:39.686Z,26.90
2024-02-27T22:19:07.212Z,24.70
2024-02-27T22:21:34.472Z,23.10
2024-02-27T22:24:01.823Z,23.50
2024-02-27T22:26:28.715Z,22.90
2024-02-27T22:28:55.693Z,24.80
2024-02-27T22:31:24.215Z,23.60
2024-02-27T22:33:51.137Z,22.40
2024-02-27T22:36:18.184Z,24.60
2024-02-27T22:38:45.234Z,25.70
2024-02-27T22:41:12.296Z,24.20
2024-02-27T22:43:39.344Z,27.70
2024-02-27T22:46:07.452Z,27.80
2024-02-27T22:48:34.345Z,29.20
2024-02-27T22:51:01.101Z,26.70
2024-02-27T22:53:27.956Z,22.60
2024-02-27T22:55:54.680Z,25.90
2024-02-27T22:58:21.568Z,27.10
2024-02-27T23:00:48.771Z,29.00
2024-02-27T23:03:15.831Z,22.40
2024-02-27T23:05:42.613Z,27.30
2024-02-27T23:08:12.061Z,24.20
2024-02-27T23:10:39.075Z,29.80
2024-02-27T23:13:07.606Z,26.80
2024-02-27T23:15:35.421Z,29.50
2024-02-27T23:18:02.996Z,27.60
2024-02-27T23:20:30.101Z,28.40
2024-02-27T23:22:57.352Z,25.20
2024-02-27T23:25:24.382Z,26.80
2024-02-27T23:27:51.464Z,25.20
2024-02-27T23:30:18.814Z,22.40
2024-02-27T23:32:45.975Z,23.10
2024-02-27T23:35:12.776Z,25.60
2024-02-27T23:37:46.034Z,22.10
2024-02-27T23:40:13.317Z,19.40
2024-02-27T23:42:40.344Z,23.60
2024-02-27T23:45:07.627Z,17.70
2024-02-27T23:47:34.830Z,20.00
2024-02-27T23:50:02.232Z,21.90
2024-02-27T23:52:29.884Z,22.70
2024-02-27T23:54:56.972Z,22.50
2024-02-27T23:57:23.831Z,23.60
2024-02-27T23:59:52.406Z,22.90
